Time;durP1;ratioP1;P1;durP2;ratioP2;P2;SDS_P1;SDS_P2;PMS_P1;PMS_P2;Temp;Humidity;BMP_temperature;BMP_pressure;BME280_temperature;BME280_humidity;BME280_pressure;Samples;Min_cycle;Max_cycle;Signal;HPM_P1;HPM_P2
2021/03/11 00:00:52;;;;;;;10.85;6.85;;;;;;;;;;5051048;28;20213;-75
2021/03/11 00:03:19;;;;;;;8.27;4.68;;;;;;;;;;5052206;28;20645;-76
2021/03/11 00:05:45;;;;;;;8.75;5.30;;;;;;;;;;5052321;28;20184;-76
2021/03/11 00:08:12;;;;;;;8.48;4.85;;;;;;;;;;5051764;28;20639;-75
2021/03/11 00:10:38;;;;;;;11.20;5.72;;;;;;;;;;5051780;28;20196;-75
2021/03/11 00:13:04;;;;;;;8.98;4.68;;;;;;;;;;5051441;28;20190;-73
2021/03/11 00:15:30;;;;;;;10.95;5.68;;;;;;;;;;5051505;28;20573;-75
2021/03/11 00:17:57;;;;;;;11.73;4.90;;;;;;;;;;5051865;28;20292;-74
2021/03/11 00:20:24;;;;;;;11.75;5.35;;;;;;;;;;5051914;28;20204;-76
2021/03/11 00:22:50;;;;;;;8.73;4.47;;;;;;;;;;5051619;28;20272;-75
2021/03/11 00:25:17;;;;;;;12.32;5.53;;;;;;;;;;5051444;28;20207;-75
2021/03/11 00:27:43;;;;;;;8.18;5.13;;;;;;;;;;5051481;28;20294;-75
2021/03/11 00:30:10;;;;;;;9.40;5.20;;;;;;;;;;5050866;28;20195;-75
2021/03/11 00:32:36;;;;;;;11.57;4.82;;;;;;;;;;5051957;28;20489;-75
2021/03/11 00:35:03;;;;;;;10.30;5.43;;;;;;;;;;5051499;28;20235;-75
2021/03/11 00:37:29;;;;;;;7.70;4.85;;;;;;;;;;5052964;28;20437;-76
2021/03/11 00:39:55;;;;;;;9.48;5.38;;;;;;;;;;5052757;28;20297;-75
2021/03/11 00:42:21;;;;;;;14.97;6.10;;;;;;;;;;5051337;28;20230;-75
2021/03/11 00:44:47;;;;;;;12.13;5.25;;;;;;;;;;5051350;28;20446;-75
2021/03/11 00:47:14;;;;;;;10.80;5.03;;;;;;;;;;5051655;28;20595;-76
2021/03/11 00:49:39;;;;;;;11.57;5.43;;;;;;;;;;5051513;28;20453;-76
2021/03/11 00:52:06;;;;;;;11.03;5.53;;;;;;;;;;5051901;28;20232;-75
2021/03/11 00:54:32;;;;;;;12.40;6.60;;;;;;;;;;5051743;28;21221;-75
2021/03/11 00:56:58;;;;;;;11.68;5.00;;;;;;;;;;5052022;28;20188;-75
2021/03/11 00:59:24;;;;;;;9.87;4.63;;;;;;;;;;5050913;28;20222;-75
2021/03/11 01:01:50;;;;;;;13.03;5.77;;;;;;;;;;5051686;28;20499;-75
2021/03/11 01:04:16;;;;;;;12.07;6.00;;;;;;;;;;5051030;28;20432;-76
2021/03/11 01:06:42;;;;;;;12.80;6.30;;;;;;;;;;5051063;28;20194;-75
2021/03/11 01:09:08;;;;;;;14.60;6.38;;;;;;;;;;5051503;28;20982;-76
2021/03/11 01:11:35;;;;;;;6.67;4.50;;;;;;;;;;5052223;28;20285;-76
2021/03/11 01:14:01;;;;;;;8.90;5.60;;;;;;;;;;5054706;28;20529;-75
2021/03/11 01:16:27;;;;;;;11.50;5.03;;;;;;;;;;5054344;28;20649;-76
2021/03/11 01:18:53;;;;;;;16.90;4.90;;;;;;;;;;5054608;28;20281;-75
2021/03/11 01:21:19;;;;;;;11.20;5.50;;;;;;;;;;5054917;28;20475;-74
2021/03/11 01:23:45;;;;;;;9.60;5.93;;;;;;;;;;5054616;28;20196;-76
2021/03/11 01:26:11;;;;;;;7.87;5.50;;;;;;;;;;5055206;28;20434;-76
2021/03/11 01:28:38;;;;;;;13.13;6.87;;;;;;;;;;5055063;28;20446;-76
2021/03/11 01:31:04;;;;;;;15.23;6.00;;;;;;;;;;5054310;28;20532;-75
2021/03/11 01:33:30;;;;;;;11.43;5.85;;;;;;;;;;5054817;28;20192;-75
2021/03/11 01:35:56;;;;;;;9.10;5.03;;;;;;;;;;5054319;28;20292;-75
2021/03/11 01:38:22;;;;;;;13.37;5.87;;;;;;;;;;5054596;28;20435;-76
2021/03/11 01:40:47;;;;;;;9.53;4.77;;;;;;;;;;5054864;28;20445;-76
2021/03/11 01:43:15;;;;;;;9.63;6.17;;;;;;;;;;5054505;28;20442;-74
2021/03/11 01:45:42;;;;;;;13.18;5.28;;;;;;;;;;5053957;28;20530;-76
2021/03/11 01:48:08;;;;;;;8.82;4.43;;;;;;;;;;5054798;28;20561;-74
2021/03/11 01:50:34;;;;;;;8.52;5.88;;;;;;;;;;5054288;28;20273;-75
2021/03/11 01:53:00;;;;;;;9.57;5.35;;;;;;;;;;5054317;28;20270;-75
2021/03/11 01:55:27;;;;;;;8.88;4.85;;;;;;;;;;5052670;28;20242;-76
2021/03/11 01:57:54;;;;;;;10.85;5.63;;;;;;;;;;5053665;28;20201;-75
2021/03/11 02:00:21;;;;;;;14.68;5.78;;;;;;;;;;5054101;28;20224;-75
2021/03/11 02:02:47;;;;;;;15.90;5.57;;;;;;;;;;5054322;28;20317;-75
2021/03/11 02:05:14;;;;;;;9.45;5.15;;;;;;;;;;5054263;28;20187;-74
2021/03/11 02:07:41;;;;;;;12.30;5.25;;;;;;;;;;5054177;28;20199;-76
2021/03/11 02:10:08;;;;;;;7.88;3.72;;;;;;;;;;5053935;28;20313;-76
2021/03/11 02:12:36;;;;;;;7.78;3.92;;;;;;;;;;5054115;28;20246;-75
2021/03/11 02:15:04;;;;;;;8.45;5.50;;;;;;;;;;5053769;28;20314;-76
2021/03/11 02:17:32;;;;;;;9.05;5.38;;;;;;;;;;5052003;28;20191;-76
2021/03/11 02:20:08;;;;;;;10.27;5.03;;;;;;;;;;5053658;28;20203;-75
2021/03/11 02:22:42;;;;;;;9.57;5.68;;;;;;;;;;5049241;28;20201;-76
2021/03/11 02:25:13;;;;;;;7.47;5.60;;;;;;;;;;5040127;28;20192;-75
2021/03/11 02:27:47;;;;;;;9.18;4.60;;;;;;;;;;5034203;28;20205;-76
2021/03/11 02:30:14;;;;;;;6.85;4.85;;;;;;;;;;5037779;28;20192;-74
2021/03/11 02:32:42;;;;;;;7.63;4.40;;;;;;;;;;5046215;28;20217;-76
2021/03/11 02:35:08;;;;;;;7.35;4.07;;;;;;;;;;5039728;28;20322;-75
2021/03/11 02:37:37;;;;;;;8.55;4.82;;;;;;;;;;5033211;28;20336;-76
2021/03/11 02:40:04;;;;;;;8.05;3.35;;;;;;;;;;5046695;28;20205;-75
2021/03/11 02:42:32;;;;;;;7.43;5.20;;;;;;;;;;5037607;28;20646;-76
2021/03/11 02:44:58;;;;;;;9.77;3.90;;;;;;;;;;5050992;28;20196;-75
2021/03/11 02:47:25;;;;;;;8.63;4.60;;;;;;;;;;5052283;28;20296;-74
2021/03/11 02:49:52;;;;;;;7.90;4.57;;;;;;;;;;5042497;28;20613;-74
2021/03/11 02:52:19;;;;;;;6.30;3.70;;;;;;;;;;5033286;28;20622;-74
2021/03/11 02:54:45;;;;;;;10.73;4.70;;;;;;;;;;5041439;28;20295;-74
2021/03/11 02:57:12;;;;;;;7.03;4.37;;;;;;;;;;5033521;28;20200;-75
2021/03/11 02:59:39;;;;;;;4.97;3.30;;;;;;;;;;5042671;28;20449;-74
2021/03/11 03:02:04;;;;;;;6.00;3.45;;;;;;;;;;5033446;28;20283;-76
2021/03/11 03:04:32;;;;;;;9.40;4.53;;;;;;;;;;5045695;28;20200;-77
2021/03/11 03:07:00;;;;;;;6.90;4.03;;;;;;;;;;5044079;28;20861;-75
2021/03/11 03:09:26;;;;;;;6.43;3.75;;;;;;;;;;5052627;28;20606;-76
2021/03/11 03:11:53;;;;;;;5.47;3.00;;;;;;;;;;5049796;28;20228;-74
2021/03/11 03:14:19;;;;;;;4.88;3.60;;;;;;;;;;5050991;28;20207;-76
2021/03/11 03:16:45;;;;;;;8.15;3.80;;;;;;;;;;5046008;28;20746;-76
2021/03/11 03:19:12;;;;;;;5.65;4.07;;;;;;;;;;5036831;28;20667;-75
2021/03/11 03:21:41;;;;;;;6.65;4.47;;;;;;;;;;5052482;28;20241;-75
2021/03/11 03:24:07;;;;;;;9.68;3.92;;;;;;;;;;5052257;28;20632;-74
2021/03/11 03:26:33;;;;;;;5.40;2.80;;;;;;;;;;5051951;28;20183;-74
2021/03/11 03:28:59;;;;;;;7.88;4.47;;;;;;;;;;5041101;28;20387;-75
2021/03/11 03:31:25;;;;;;;7.73;3.87;;;;;;;;;;5052335;28;20226;-76
2021/03/11 03:33:51;;;;;;;5.87;3.80;;;;;;;;;;5052099;28;20801;-76
2021/03/11 03:36:17;;;;;;;6.27;4.10;;;;;;;;;;5052108;28;20532;-75
2021/03/11 03:38:43;;;;;;;6.67;3.70;;;;;;;;;;5038346;28;20438;-75
2021/03/11 03:41:10;;;;;;;9.05;4.18;;;;;;;;;;5032311;28;20477;-75
2021/03/11 03:43:39;;;;;;;8.15;4.05;;;;;;;;;;5046728;28;20206;-75
2021/03/11 03:46:06;;;;;;;9.35;5.07;;;;;;;;;;5047558;28;20194;-75
2021/03/11 03:48:34;;;;;;;13.15;4.63;;;;;;;;;;5052685;28;20700;-75
2021/03/11 03:51:00;;;;;;;5.75;3.33;;;;;;;;;;5052695;28;20221;-74
2021/03/11 03:53:28;;;;;;;4.82;3.13;;;;;;;;;;5052453;28;20691;-76
2021/03/11 03:55:57;;;;;;;7.80;3.70;;;;;;;;;;5052337;28;20300;-76
2021/03/11 03:58:24;;;;;;;8.40;3.63;;;;;;;;;;5051146;28;20225;-75
2021/03/11 04:00:50;;;;;;;11.60;5.28;;;;;;;;;;5042483;28;20193;-75
2021/03/11 04:03:17;;;;;;;6.03;4.38;;;;;;;;;;5032642;28;20533;-75
2021/03/11 04:05:43;;;;;;;10.27;4.65;;;;;;;;;;5031925;28;20190;-74
2021/03/11 04:08:09;;;;;;;7.93;5.25;;;;;;;;;;5051581;28;20323;-75
2021/03/11 04:10:35;;;;;;;8.00;4.50;;;;;;;;;;5046925;28;20234;-76
2021/03/11 04:13:02;;;;;;;6.85;4.65;;;;;;;;;;5044318;28;20432;-74
2021/03/11 04:15:28;;;;;;;7.32;4.78;;;;;;;;;;5044066;28;20233;-75
2021/03/11 04:17:54;;;;;;;8.82;4.90;;;;;;;;;;5032258;28;20675;-76
2021/03/11 04:20:20;;;;;;;10.10;5.53;;;;;;;;;;5041875;28;20277;-75
2021/03/11 04:22:46;;;;;;;9.82;4.55;;;;;;;;;;5052398;28;20279;-75
2021/03/11 04:25:14;;;;;;;10.13;5.60;;;;;;;;;;5047190;28;20184;-75
2021/03/11 04:27:40;;;;;;;7.57;4.25;;;;;;;;;;5052035;28;21007;-74
2021/03/11 04:30:07;;;;;;;7.95;4.93;;;;;;;;;;5031984;28;20273;-75
2021/03/11 04:32:34;;;;;;;5.65;4.63;;;;;;;;;;5045071;28;20203;-75
2021/03/11 04:35:00;;;;;;;9.60;5.30;;;;;;;;;;5052006;28;20264;-75
2021/03/11 04:37:26;;;;;;;9.00;4.63;;;;;;;;;;5046717;28;20256;-74
2021/03/11 04:39:53;;;;;;;7.47;5.88;;;;;;;;;;5050347;28;20213;-75
2021/03/11 04:42:19;;;;;;;5.93;4.07;;;;;;;;;;5037927;28;20280;-75
2021/03/11 04:44:45;;;;;;;8.57;4.20;;;;;;;;;;5037573;28;20183;-75
2021/03/11 04:47:12;;;;;;;7.47;4.90;;;;;;;;;;5040179;28;20433;-76
2021/03/11 04:49:39;;;;;;;9.77;4.68;;;;;;;;;;5055369;28;20201;-76
2021/03/11 04:52:06;;;;;;;9.85;4.43;;;;;;;;;;5055393;28;20285;-74
2021/03/11 04:54:33;;;;;;;7.45;4.72;;;;;;;;;;5045194;28;20233;-76
2021/03/11 04:57:01;;;;;;;8.40;5.10;;;;;;;;;;5055378;28;20198;-73
2021/03/11 04:59:27;;;;;;;8.32;4.25;;;;;;;;;;5054034;28;20264;-76
2021/03/11 05:01:55;;;;;;;10.00;4.87;;;;;;;;;;5055118;28;20191;-75
2021/03/11 05:04:22;;;;;;;12.02;5.25;;;;;;;;;;5054744;28;20595;-76
2021/03/11 05:06:48;;;;;;;9.52;4.63;;;;;;;;;;5055325;28;20187;-75
2021/03/11 05:09:14;;;;;;;4.93;3.80;;;;;;;;;;5041431;28;20192;-77
2021/03/11 05:11:41;;;;;;;11.23;4.80;;;;;;;;;;5046192;28;20459;-76
2021/03/11 05:14:07;;;;;;;10.07;5.30;;;;;;;;;;5052631;28;20446;-75
2021/03/11 05:16:33;;;;;;;11.33;5.00;;;;;;;;;;5055148;28;20203;-75
2021/03/11 05:18:59;;;;;;;8.40;5.03;;;;;;;;;;5054138;28;20811;-74
2021/03/11 05:21:26;;;;;;;6.00;4.00;;;;;;;;;;5055183;28;20850;-74
2021/03/11 05:23:53;;;;;;;5.22;4.28;;;;;;;;;;5052412;28;20623;-76
2021/03/11 05:26:19;;;;;;;7.97;4.20;;;;;;;;;;5037376;28;20565;-76
2021/03/11 05:28:45;;;;;;;12.20;4.60;;;;;;;;;;5040151;28;20281;-75
2021/03/11 05:31:11;;;;;;;9.53;4.80;;;;;;;;;;5055174;28;20468;-75
2021/03/11 05:33:37;;;;;;;5.77;4.00;;;;;;;;;;5041516;28;20453;-75
2021/03/11 05:36:03;;;;;;;10.77;4.53;;;;;;;;;;5034319;28;20577;-76
2021/03/11 05:38:30;;;;;;;7.05;3.65;;;;;;;;;;5037622;28;20429;-74
2021/03/11 05:40:56;;;;;;;6.15;3.90;;;;;;;;;;5053609;28;20204;-74
2021/03/11 05:43:22;;;;;;;7.43;4.13;;;;;;;;;;5050993;28;20188;-74
2021/03/11 05:45:48;;;;;;;5.37;3.57;;;;;;;;;;5034756;28;20431;-74
2021/03/11 05:48:14;;;;;;;9.13;4.10;;;;;;;;;;5041475;28;20443;-76
2021/03/11 05:50:40;;;;;;;7.85;4.28;;;;;;;;;;5034402;28;20436;-75
2021/03/11 05:53:06;;;;;;;8.18;3.65;;;;;;;;;;5034490;28;20191;-76
2021/03/11 05:55:35;;;;;;;7.35;5.30;;;;;;;;;;5048744;28;20253;-77
2021/03/11 05:58:01;;;;;;;10.85;4.93;;;;;;;;;;5052200;28;20709;-76
2021/03/11 06:00:27;;;;;;;9.10;3.70;;;;;;;;;;5050566;28;20228;-76
2021/03/11 06:02:56;;;;;;;8.23;4.43;;;;;;;;;;5052038;28;20510;-75
2021/03/11 06:05:22;;;;;;;5.78;4.30;;;;;;;;;;5035343;28;20501;-77
2021/03/11 06:07:48;;;;;;;6.35;3.47;;;;;;;;;;5041261;28;20201;-75
2021/03/11 06:10:15;;;;;;;7.88;4.15;;;;;;;;;;5054686;28;20667;-73
2021/03/11 06:12:43;;;;;;;6.30;4.15;;;;;;;;;;5054188;28;20191;-74
2021/03/11 06:15:11;;;;;;;6.00;3.38;;;;;;;;;;5053839;28;20318;-74
2021/03/11 06:17:38;;;;;;;9.75;4.13;;;;;;;;;;5054086;28;20193;-73
2021/03/11 06:20:05;;;;;;;9.35;5.07;;;;;;;;;;5054485;28;20183;-73
2021/03/11 06:22:31;;;;;;;7.60;4.43;;;;;;;;;;5053635;28;20199;-75
2021/03/11 06:24:57;;;;;;;9.77;3.90;;;;;;;;;;5053809;28;20205;-74
2021/03/11 06:27:23;;;;;;;8.68;4.70;;;;;;;;;;5053768;28;20908;-75
2021/03/11 06:29:50;;;;;;;7.75;4.93;;;;;;;;;;5053889;28;20199;-75
2021/03/11 06:32:16;;;;;;;7.43;4.32;;;;;;;;;;5054308;28;20203;-74
2021/03/11 06:34:43;;;;;;;15.00;3.60;;;;;;;;;;5053513;28;20214;-75
2021/03/11 06:37:09;;;;;;;4.55;3.45;;;;;;;;;;5053561;28;20445;-74
2021/03/11 06:39:35;;;;;;;4.07;3.67;;;;;;;;;;5053105;28;20187;-74
2021/03/11 06:42:01;;;;;;;6.13;3.78;;;;;;;;;;5053686;28;20442;-73
2021/03/11 06:44:37;;;;;;;6.28;3.50;;;;;;;;;;5054099;28;20266;-75
2021/03/11 06:47:05;;;;;;;7.28;4.15;;;;;;;;;;5053515;28;20257;-75
2021/03/11 06:49:31;;;;;;;11.82;4.10;;;;;;;;;;5051347;28;20220;-73
2021/03/11 06:52:10;;;;;;;5.75;3.30;;;;;;;;;;5051611;28;20205;-76
2021/03/11 06:54:55;;;;;;;6.00;3.42;;;;;;;;;;5049861;28;20183;-73
2021/03/11 06:57:28;;;;;;;4.65;3.17;;;;;;;;;;5052020;28;20209;-74
2021/03/11 06:59:54;;;;;;;5.78;3.10;;;;;;;;;;5051745;28;20267;-73
2021/03/11 07:02:21;;;;;;;7.05;4.32;;;;;;;;;;5051877;28;20549;-74
2021/03/11 07:04:47;;;;;;;4.05;3.33;;;;;;;;;;5051863;28;20222;-73
2021/03/11 07:07:16;;;;;;;8.05;3.97;;;;;;;;;;5051443;28;20195;-74
2021/03/11 07:09:42;;;;;;;5.15;3.15;;;;;;;;;;5051668;28;20194;-74
2021/03/11 07:12:08;;;;;;;6.97;3.33;;;;;;;;;;5052167;28;20185;-76
2021/03/11 07:14:34;;;;;;;8.32;3.80;;;;;;;;;;5045932;28;20457;-74
2021/03/11 07:17:15;;;;;;;10.43;5.20;;;;;;;;;;5051597;28;20208;-72
2021/03/11 07:19:42;;;;;;;6.05;4.15;;;;;;;;;;5049072;28;20430;-75
2021/03/11 07:22:16;;;;;;;7.10;4.00;;;;;;;;;;5051619;28;20638;-74
2021/03/11 07:24:42;;;;;;;6.60;4.28;;;;;;;;;;5051783;28;20232;-73
2021/03/11 07:27:08;;;;;;;6.43;3.40;;;;;;;;;;5051417;28;20646;-75
2021/03/11 07:29:34;;;;;;;4.28;3.30;;;;;;;;;;5051030;28;20550;-75
2021/03/11 07:32:01;;;;;;;7.30;3.80;;;;;;;;;;5050963;28;20279;-74
2021/03/11 07:34:28;;;;;;;4.88;4.13;;;;;;;;;;5051238;28;20246;-72
2021/03/11 07:36:57;;;;;;;8.38;3.50;;;;;;;;;;5051019;28;20219;-72
2021/03/11 07:39:25;;;;;;;5.78;3.60;;;;;;;;;;5050874;28;20190;-73
2021/03/11 07:41:51;;;;;;;7.03;4.07;;;;;;;;;;5051120;28;20188;-75
2021/03/11 07:44:17;;;;;;;7.28;3.70;;;;;;;;;;5051463;28;20190;-74
2021/03/11 07:46:43;;;;;;;5.47;3.40;;;;;;;;;;5051398;28;20215;-74
2021/03/11 07:49:10;;;;;;;9.87;4.03;;;;;;;;;;5051050;28;20247;-75
2021/03/11 07:51:36;;;;;;;8.50;3.40;;;;;;;;;;5052155;28;20451;-74
2021/03/11 07:54:03;;;;;;;6.47;3.70;;;;;;;;;;5051842;28;20204;-72
2021/03/11 07:56:29;;;;;;;9.23;3.45;;;;;;;;;;5052063;28;20259;-74
2021/03/11 07:58:55;;;;;;;4.60;3.37;;;;;;;;;;5050655;28;20732;-75
2021/03/11 08:01:21;;;;;;;8.17;4.13;;;;;;;;;;5051055;28;20446;-75
2021/03/11 08:03:49;;;;;;;7.00;3.45;;;;;;;;;;5051648;28;20847;-75
2021/03/11 08:06:26;;;;;;;4.65;3.17;;;;;;;;;;5051798;28;20527;-73
2021/03/11 08:08:52;;;;;;;8.05;4.45;;;;;;;;;;5052050;28;20207;-75
2021/03/11 08:11:32;;;;;;;6.22;3.15;;;;;;;;;;5052207;28;20187;-75
2021/03/11 08:14:13;;;;;;;7.82;3.85;;;;;;;;;;5053124;28;20199;-75
2021/03/11 08:16:39;;;;;;;5.18;3.10;;;;;;;;;;5052031;28;20780;-75
2021/03/11 08:19:05;;;;;;;7.93;3.20;;;;;;;;;;5051643;28;20184;-74
2021/03/11 08:21:42;;;;;;;4.33;3.63;;;;;;;;;;5053548;28;20515;-75
2021/03/11 08:24:23;;;;;;;7.60;3.92;;;;;;;;;;5055508;28;20450;-75
2021/03/11 08:26:49;;;;;;;4.90;3.83;;;;;;;;;;5055876;28;20318;-73
2021/03/11 08:29:30;;;;;;;5.43;2.78;;;;;;;;;;5055675;28;20201;-75
2021/03/11 08:31:56;;;;;;;4.22;3.28;;;;;;;;;;5054569;28;20232;-74
2021/03/11 08:34:35;;;;;;;4.70;3.00;;;;;;;;;;5055052;28;20210;-75
2021/03/11 08:37:15;;;;;;;4.00;2.25;;;;;;;;;;5054791;28;20897;-73
2021/03/11 08:39:41;;;;;;;4.00;3.17;;;;;;;;;;5055672;28;20189;-76
2021/03/11 08:42:25;;;;;;;6.33;3.23;;;;;;;;;;5055001;28;20215;-73
2021/03/11 08:44:52;;;;;;;5.00;2.75;;;;;;;;;;5054335;28;20466;-73
2021/03/11 08:47:18;;;;;;;6.90;3.20;;;;;;;;;;5054891;28;20278;-74
2021/03/11 08:49:44;;;;;;;5.60;3.13;;;;;;;;;;5053824;28;20250;-75
2021/03/11 08:52:29;;;;;;;5.35;3.13;;;;;;;;;;5035442;28;20861;-75
2021/03/11 08:55:07;;;;;;;7.18;3.90;;;;;;;;;;5035041;28;20189;-75
2021/03/11 08:57:42;;;;;;;4.95;3.30;;;;;;;;;;5034706;28;20270;-76
2021/03/11 09:00:11;;;;;;;5.35;3.58;;;;;;;;;;5035322;28;20603;-74
2021/03/11 09:02:36;;;;;;;6.60;2.78;;;;;;;;;;5035083;28;20191;-74
2021/03/11 09:05:04;;;;;;;7.70;3.70;;;;;;;;;;5035216;28;20208;-76
2021/03/11 09:07:35;;;;;;;3.88;2.50;;;;;;;;;;5044050;28;20445;-73
2021/03/11 09:10:01;;;;;;;4.00;3.33;;;;;;;;;;5055107;28;20192;-74
2021/03/11 09:12:35;;;;;;;6.55;3.30;;;;;;;;;;5055001;28;20227;-75
2021/03/11 09:15:04;;;;;;;4.70;3.20;;;;;;;;;;5054830;28;20193;-74
2021/03/11 09:17:31;;;;;;;4.93;2.90;;;;;;;;;;5055005;28;20564;-74
2021/03/11 09:20:00;;;;;;;7.00;3.70;;;;;;;;;;5054111;28;20286;-74
2021/03/11 09:22:28;;;;;;;4.60;3.20;;;;;;;;;;5053648;28;20192;-73
2021/03/11 09:25:05;;;;;;;6.90;4.40;;;;;;;;;;5054352;28;20249;-73
2021/03/11 09:27:32;;;;;;;6.45;3.70;;;;;;;;;;5054302;28;20216;-74
2021/03/11 09:29:58;;;;;;;5.30;3.22;;;;;;;;;;5054680;28;20215;-76
2021/03/11 09:32:27;;;;;;;6.18;3.60;;;;;;;;;;5053786;28;20213;-73
2021/03/11 09:34:55;;;;;;;7.72;4.35;;;;;;;;;;5053614;28;20209;-74
2021/03/11 09:37:39;;;;;;;4.60;3.47;;;;;;;;;;5054259;28;20189;-75
2021/03/11 09:40:05;;;;;;;5.50;3.00;;;;;;;;;;5043698;28;20247;-74
2021/03/11 09:42:31;;;;;;;7.65;3.75;;;;;;;;;;5054622;28;20642;-74
2021/03/11 09:44:57;;;;;;;7.40;3.70;;;;;;;;;;5054066;28;20191;-75
2021/03/11 09:47:28;;;;;;;5.27;3.57;;;;;;;;;;5052994;28;20537;-73
2021/03/11 09:50:04;;;;;;;4.60;3.85;;;;;;;;;;5051779;28;20467;-77
2021/03/11 09:52:30;;;;;;;4.10;2.97;;;;;;;;;;5034137;28;20258;-74
2021/03/11 09:54:57;;;;;;;5.30;3.63;;;;;;;;;;5049146;28;20197;-73
2021/03/11 09:57:23;;;;;;;4.72;3.85;;;;;;;;;;5053568;28;20518;-76
2021/03/11 09:59:49;;;;;;;9.88;4.15;;;;;;;;;;5053866;28;20294;-75
2021/03/11 10:02:15;;;;;;;8.07;3.50;;;;;;;;;;5053676;28;20286;-76
2021/03/11 10:04:41;;;;;;;5.00;3.50;;;;;;;;;;5053666;28;20471;-76
2021/03/11 10:07:13;;;;;;;6.60;3.87;;;;;;;;;;5053621;28;20419;-74
2021/03/11 10:09:40;;;;;;;5.97;4.10;;;;;;;;;;5053870;28;20519;-75
2021/03/11 10:12:06;;;;;;;7.55;4.60;;;;;;;;;;5053195;28;20187;-74
2021/03/11 10:14:32;;;;;;;6.13;3.60;;;;;;;;;;5053341;28;20299;-73
2021/03/11 10:16:59;;;;;;;6.37;3.23;;;;;;;;;;5053525;28;20236;-73
2021/03/11 10:19:30;;;;;;;11.00;4.32;;;;;;;;;;5053757;28;20432;-73
2021/03/11 10:22:02;;;;;;;5.53;3.75;;;;;;;;;;5052700;28;20693;-75
2021/03/11 10:24:32;;;;;;;4.47;3.30;;;;;;;;;;5033822;28;20617;-76
2021/03/11 10:26:58;;;;;;;5.47;3.38;;;;;;;;;;5033973;28;20605;-74
2021/03/11 10:29:27;;;;;;;5.85;3.70;;;;;;;;;;5033321;28;20272;-76
2021/03/11 10:31:55;;;;;;;5.45;3.25;;;;;;;;;;5033749;28;20236;-76
2021/03/11 10:34:21;;;;;;;5.43;3.60;;;;;;;;;;5033007;28;20235;-76
2021/03/11 10:36:54;;;;;;;11.60;3.47;;;;;;;;;;5033465;28;20323;-76
2021/03/11 10:39:20;;;;;;;5.60;3.50;;;;;;;;;;5033599;28;20467;-75
2021/03/11 10:41:57;;;;;;;5.03;3.17;;;;;;;;;;5051357;28;20225;-75
2021/03/11 10:44:22;;;;;;;3.75;3.17;;;;;;;;;;5052692;28;20456;-74
2021/03/11 10:46:48;;;;;;;6.00;3.83;;;;;;;;;;5053051;28;20207;-76
2021/03/11 10:49:15;;;;;;;6.43;3.45;;;;;;;;;;5053306;28;20440;-75
2021/03/11 10:51:41;;;;;;;5.28;3.50;;;;;;;;;;5052965;28;20193;-74
2021/03/11 10:54:07;;;;;;;2.70;2.45;;;;;;;;;;5052540;28;20232;-74
2021/03/11 10:56:33;;;;;;;6.20;4.88;;;;;;;;;;5053078;28;20225;-74
2021/03/11 10:59:14;;;;;;;5.13;3.30;;;;;;;;;;5052215;28;20200;-74
2021/03/11 11:01:41;;;;;;;5.03;3.40;;;;;;;;;;5051337;28;20470;-74
2021/03/11 11:04:07;;;;;;;6.30;3.85;;;;;;;;;;5052286;28;20192;-75
2021/03/11 11:06:33;;;;;;;5.05;2.42;;;;;;;;;;5053152;28;20209;-74
2021/03/11 11:08:58;;;;;;;5.88;3.17;;;;;;;;;;5053255;28;20571;-73
2021/03/11 11:11:25;;;;;;;7.33;3.27;;;;;;;;;;5052836;28;20209;-75
2021/03/11 11:13:51;;;;;;;9.18;4.05;;;;;;;;;;5052011;28;20463;-73
2021/03/11 11:16:18;;;;;;;3.67;2.65;;;;;;;;;;5052049;28;20213;-74
2021/03/11 11:18:44;;;;;;;5.63;3.95;;;;;;;;;;5052478;28;20202;-73
2021/03/11 11:21:11;;;;;;;4.63;3.45;;;;;;;;;;5052481;28;20190;-75
2021/03/11 11:23:37;;;;;;;3.75;2.97;;;;;;;;;;5052364;28;20197;-75
2021/03/11 11:26:03;;;;;;;3.87;2.87;;;;;;;;;;5051950;28;20647;-74
2021/03/11 11:28:29;;;;;;;5.03;2.50;;;;;;;;;;5052327;28;20585;-75
2021/03/11 11:30:54;;;;;;;3.70;3.30;;;;;;;;;;5052105;28;20439;-74
2021/03/11 11:33:21;;;;;;;5.00;3.08;;;;;;;;;;5052161;28;20455;-75
2021/03/11 11:35:49;;;;;;;4.72;2.90;;;;;;;;;;5051833;28;20238;-73
2021/03/11 11:38:15;;;;;;;5.07;3.42;;;;;;;;;;5051488;28;20217;-75
2021/03/11 11:40:41;;;;;;;3.05;2.75;;;;;;;;;;5052227;28;20247;-74
2021/03/11 11:43:07;;;;;;;2.90;2.13;;;;;;;;;;5051845;28;20193;-75
2021/03/11 11:45:33;;;;;;;3.90;2.60;;;;;;;;;;5052827;28;20523;-74
2021/03/11 11:47:59;;;;;;;3.20;2.40;;;;;;;;;;5051722;28;20440;-74
2021/03/11 11:50:25;;;;;;;3.00;2.77;;;;;;;;;;5052324;28;20444;-73
2021/03/11 11:52:52;;;;;;;2.75;1.92;;;;;;;;;;5051926;28;20470;-74
2021/03/11 11:55:18;;;;;;;3.78;2.17;;;;;;;;;;5051379;28;20213;-74
2021/03/11 11:57:44;;;;;;;1.70;1.40;;;;;;;;;;5051600;28;20595;-75
2021/03/11 12:00:11;;;;;;;2.85;2.05;;;;;;;;;;5052214;28;20181;-72
2021/03/11 12:02:37;;;;;;;2.22;1.40;;;;;;;;;;5052754;28;20612;-72
2021/03/11 12:05:04;;;;;;;3.73;2.30;;;;;;;;;;5053063;28;20197;-73
2021/03/11 12:07:30;;;;;;;3.22;2.30;;;;;;;;;;5051983;28;20439;-74
2021/03/11 12:09:58;;;;;;;6.40;1.92;;;;;;;;;;5052726;28;20232;-74
2021/03/11 12:12:24;;;;;;;2.13;1.85;;;;;;;;;;5054577;28;20201;-73
2021/03/11 12:14:51;;;;;;;3.28;1.92;;;;;;;;;;5054081;28;20202;-72
2021/03/11 12:17:17;;;;;;;4.40;2.10;;;;;;;;;;5052637;28;20221;-74
2021/03/11 12:19:43;;;;;;;4.47;2.30;;;;;;;;;;5052860;28;20193;-72
2021/03/11 12:22:09;;;;;;;3.27;2.13;;;;;;;;;;5052894;28;20522;-72
2021/03/11 12:24:36;;;;;;;5.27;3.10;;;;;;;;;;5052582;28;20427;-73
2021/03/11 12:27:02;;;;;;;7.18;2.00;;;;;;;;;;5052312;28;20472;-74
2021/03/11 12:29:27;;;;;;;9.63;2.47;;;;;;;;;;5052201;28;20585;-73
2021/03/11 12:31:53;;;;;;;3.33;1.90;;;;;;;;;;5051562;28;20471;-73
2021/03/11 12:34:19;;;;;;;6.45;2.08;;;;;;;;;;5051263;28;20454;-73
2021/03/11 12:36:45;;;;;;;2.70;1.80;;;;;;;;;;5052091;28;20225;-73
2021/03/11 12:39:11;;;;;;;2.80;1.70;;;;;;;;;;5052134;28;20508;-75
2021/03/11 12:41:38;;;;;;;4.50;0.80;;;;;;;;;;5050904;28;20793;-75
2021/03/11 12:44:04;;;;;;;1.20;0.90;;;;;;;;;;5051569;28;20832;-75
2021/03/11 12:46:30;;;;;;;5.53;1.98;;;;;;;;;;5050818;28;20360;-75
2021/03/11 12:48:56;;;;;;;5.93;1.40;;;;;;;;;;5050339;28;20636;-75
2021/03/11 12:51:22;;;;;;;1.20;1.10;;;;;;;;;;5050417;28;20456;-76
2021/03/11 12:53:48;;;;;;;2.30;1.00;;;;;;;;;;5051340;28;20468;-76
2021/03/11 12:56:14;;;;;;;2.28;0.80;;;;;;;;;;5050959;28;20519;-75
2021/03/11 12:58:41;;;;;;;9.93;1.40;;;;;;;;;;5051371;28;20861;-76
2021/03/11 13:01:07;;;;;;;2.70;1.52;;;;;;;;;;5050753;28;20456;-75
2021/03/11 13:03:34;;;;;;;3.38;1.50;;;;;;;;;;5051178;28;20195;-74
2021/03/11 13:06:00;;;;;;;3.83;1.33;;;;;;;;;;5050702;28;20201;-75
2021/03/11 13:08:26;;;;;;;1.20;1.10;;;;;;;;;;5053883;28;20205;-76
2021/03/11 13:10:52;;;;;;;2.85;1.10;;;;;;;;;;5053313;28;20544;-76
2021/03/11 13:13:18;;;;;;;2.07;1.50;;;;;;;;;;5055313;28;20202;-75
2021/03/11 13:15:45;;;;;;;2.30;1.63;;;;;;;;;;5055447;28;20554;-75
2021/03/11 13:18:11;;;;;;;2.20;1.75;;;;;;;;;;5054911;28;20205;-74
2021/03/11 13:20:37;;;;;;;3.67;2.33;;;;;;;;;;5054802;28;20189;-74
2021/03/11 13:23:03;;;;;;;2.90;2.53;;;;;;;;;;5055087;28;20520;-75
2021/03/11 13:25:29;;;;;;;3.50;2.33;;;;;;;;;;5055046;28;20433;-75
2021/03/11 13:27:56;;;;;;;2.33;2.00;;;;;;;;;;5054947;28;20426;-74
2021/03/11 13:30:22;;;;;;;3.50;1.92;;;;;;;;;;5054121;28;20186;-75
2021/03/11 13:32:50;;;;;;;6.38;1.88;;;;;;;;;;5054909;28;20234;-75
2021/03/11 13:35:17;;;;;;;5.45;1.92;;;;;;;;;;5054393;28;20299;-75
2021/03/11 13:37:43;;;;;;;5.05;3.35;;;;;;;;;;5054347;28;20285;-73
2021/03/11 13:40:10;;;;;;;3.45;2.00;;;;;;;;;;5054352;28;20299;-75
2021/03/11 13:42:36;;;;;;;2.10;1.77;;;;;;;;;;5054166;28;20266;-76
2021/03/11 13:45:02;;;;;;;4.50;1.30;;;;;;;;;;5053864;28;20195;-77
2021/03/11 13:47:28;;;;;;;1.40;1.25;;;;;;;;;;5054022;28;20284;-75
2021/03/11 13:49:55;;;;;;;4.43;1.43;;;;;;;;;;5054095;28;20211;-74
2021/03/11 13:52:21;;;;;;;1.60;1.38;;;;;;;;;;5054326;28;20855;-75
2021/03/11 13:54:46;;;;;;;2.60;1.20;;;;;;;;;;5054479;28;20191;-75
2021/03/11 13:57:12;;;;;;;3.33;1.60;;;;;;;;;;5054544;28;20902;-74
2021/03/11 13:59:38;;;;;;;4.28;1.63;;;;;;;;;;5053837;28;20867;-77
2021/03/11 14:02:04;;;;;;;1.57;1.47;;;;;;;;;;5053784;28;20190;-75
2021/03/11 14:04:30;;;;;;;1.80;1.50;;;;;;;;;;5053668;28;20480;-76
2021/03/11 14:06:57;;;;;;;3.90;1.30;;;;;;;;;;5054191;28;20425;-75
2021/03/11 14:09:23;;;;;;;2.55;1.15;;;;;;;;;;5054504;28;20852;-75
2021/03/11 14:11:49;;;;;;;1.50;1.00;;;;;;;;;;5053894;28;20327;-75
2021/03/11 14:14:15;;;;;;;1.73;1.40;;;;;;;;;;5053587;28;20475;-75
2021/03/11 14:16:41;;;;;;;1.10;0.98;;;;;;;;;;5053675;28;20841;-75
2021/03/11 14:19:07;;;;;;;2.45;1.25;;;;;;;;;;5052751;28;20714;-76
2021/03/11 14:21:33;;;;;;;1.67;1.10;;;;;;;;;;5053610;28;20188;-73
2021/03/11 14:24:00;;;;;;;1.73;0.80;;;;;;;;;;5053547;28;20810;-75
2021/03/11 14:26:25;;;;;;;0.93;0.80;;;;;;;;;;5053126;28;20186;-75
2021/03/11 14:28:51;;;;;;;1.07;0.97;;;;;;;;;;5054018;28;20262;-75
2021/03/11 14:31:17;;;;;;;1.90;0.80;;;;;;;;;;5053651;28;20444;-73
2021/03/11 14:33:43;;;;;;;0.97;0.70;;;;;;;;;;5053717;28;20483;-73
2021/03/11 14:36:09;;;;;;;2.93;0.83;;;;;;;;;;5052733;28;20509;-74
2021/03/11 14:38:35;;;;;;;4.60;1.25;;;;;;;;;;5052928;28;20448;-75
2021/03/11 14:41:02;;;;;;;1.45;0.80;;;;;;;;;;5052883;28;20200;-75